sensor_id;sensor_type;location;lat;lon;timestamp;P1;durP1;ratioP1;P2;durP2;ratioP2
27265;SDS011;14766;51.380;13.762;2023-07-31T00:00:51;4.25;;;1.50;;
27265;SDS011;14766;51.380;13.762;2023-07-31T00:03:18;2.60;;;1.40;;
27265;SDS011;14766;51.380;13.762;2023-07-31T00:05:45;4.80;;;1.58;;
27265;SDS011;14766;51.380;13.762;2023-07-31T00:08:12;4.90;;;1.83;;
27265;SDS011;14766;51.380;13.762;2023-07-31T00:10:39;3.45;;;1.50;;
27265;SDS011;14766;51.380;13.762;2023-07-31T00:13:06;2.35;;;1.10;;
27265;SDS011;14766;51.380;13.762;2023-07-31T00:15:33;2.75;;;1.55;;
27265;SDS011;14766;51.380;13.762;2023-07-31T00:18:00;4.88;;;1.95;;
27265;SDS011;14766;51.380;13.762;2023-07-31T00:20:28;1.88;;;1.27;;
27265;SDS011;14766;51.380;13.762;2023-07-31T00:22:55;4.50;;;2.42;;
27265;SDS011;14766;51.380;13.762;2023-07-31T00:25:22;5.50;;;1.90;;
27265;SDS011;14766;51.380;13.762;2023-07-31T00:27:49;10.52;;;2.20;;
27265;SDS011;14766;51.380;13.762;2023-07-31T00:30:16;4.95;;;1.42;;
27265;SDS011;14766;51.380;13.762;2023-07-31T00:32:43;4.47;;;1.65;;
27265;SDS011;14766;51.380;13.762;2023-07-31T00:35:10;4.40;;;1.52;;
27265;SDS011;14766;51.380;13.762;2023-07-31T00:37:37;4.25;;;1.67;;
27265;SDS011;14766;51.380;13.762;2023-07-31T00:40:05;2.58;;;1.10;;
27265;SDS011;14766;51.380;13.762;2023-07-31T00:42:32;4.65;;;1.58;;
27265;SDS011;14766;51.380;13.762;2023-07-31T00:44:59;2.30;;;1.10;;
27265;SDS011;14766;51.380;13.762;2023-07-31T00:47:26;2.95;;;1.33;;
27265;SDS011;14766;51.380;13.762;2023-07-31T00:49:53;3.05;;;1.63;;
27265;SDS011;14766;51.380;13.762;2023-07-31T00:52:21;3.92;;;1.65;;
27265;SDS011;14766;51.380;13.762;2023-07-31T00:54:48;2.83;;;1.30;;
27265;SDS011;14766;51.380;13.762;2023-07-31T00:57:16;5.03;;;1.40;;
27265;SDS011;14766;51.380;13.762;2023-07-31T00:59:43;1.80;;;0.98;;
27265;SDS011;14766;51.380;13.762;2023-07-31T01:02:10;2.78;;;1.50;;
27265;SDS011;14766;51.380;13.762;2023-07-31T01:04:37;4.75;;;1.48;;
27265;SDS011;14766;51.380;13.762;2023-07-31T01:07:20;3.88;;;1.40;;
27265;SDS011;14766;51.380;13.762;2023-07-31T01:10:04;2.75;;;1.40;;
27265;SDS011;14766;51.380;13.762;2023-07-31T01:12:51;1.88;;;1.20;;
27265;SDS011;14766;51.380;13.762;2023-07-31T01:15:20;4.32;;;1.40;;
27265;SDS011;14766;51.380;13.762;2023-07-31T01:17:47;2.95;;;1.60;;
27265;SDS011;14766;51.380;13.762;2023-07-31T01:20:22;3.85;;;2.33;;
27265;SDS011;14766;51.380;13.762;2023-07-31T01:31:33;3.38;;;1.75;;
27265;SDS011;14766;51.380;13.762;2023-07-31T01:34:03;2.85;;;1.40;;
27265;SDS011;14766;51.380;13.762;2023-07-31T01:36:31;4.75;;;2.10;;
27265;SDS011;14766;51.380;13.762;2023-07-31T01:38:59;4.68;;;1.73;;
27265;SDS011;14766;51.380;13.762;2023-07-31T01:41:27;2.30;;;1.60;;
27265;SDS011;14766;51.380;13.762;2023-07-31T01:43:54;3.88;;;1.70;;
27265;SDS011;14766;51.380;13.762;2023-07-31T01:46:22;3.60;;;1.55;;
27265;SDS011;14766;51.380;13.762;2023-07-31T01:48:49;4.20;;;1.90;;
27265;SDS011;14766;51.380;13.762;2023-07-31T01:51:18;5.97;;;1.98;;
27265;SDS011;14766;51.380;13.762;2023-07-31T01:53:45;2.95;;;1.77;;
27265;SDS011;14766;51.380;13.762;2023-07-31T01:56:12;2.88;;;1.50;;
27265;SDS011;14766;51.380;13.762;2023-07-31T01:58:41;3.63;;;1.52;;
27265;SDS011;14766;51.380;13.762;2023-07-31T02:01:08;4.57;;;1.92;;
27265;SDS011;14766;51.380;13.762;2023-07-31T02:03:35;3.13;;;1.83;;
27265;SDS011;14766;51.380;13.762;2023-07-31T02:06:02;4.10;;;1.60;;
27265;SDS011;14766;51.380;13.762;2023-07-31T02:08:29;3.95;;;1.65;;
27265;SDS011;14766;51.380;13.762;2023-07-31T02:10:56;3.55;;;1.70;;
27265;SDS011;14766;51.380;13.762;2023-07-31T02:13:23;4.55;;;1.33;;
27265;SDS011;14766;51.380;13.762;2023-07-31T02:15:50;4.85;;;1.60;;
27265;SDS011;14766;51.380;13.762;2023-07-31T02:18:18;2.50;;;1.60;;
27265;SDS011;14766;51.380;13.762;2023-07-31T02:20:51;5.63;;;2.13;;
27265;SDS011;14766;51.380;13.762;2023-07-31T02:23:19;5.60;;;2.03;;
27265;SDS011;14766;51.380;13.762;2023-07-31T02:25:46;3.58;;;1.30;;
27265;SDS011;14766;51.380;13.762;2023-07-31T02:28:14;5.82;;;2.00;;
27265;SDS011;14766;51.380;13.762;2023-07-31T02:30:43;4.85;;;1.83;;
27265;SDS011;14766;51.380;13.762;2023-07-31T02:33:12;4.07;;;1.77;;
27265;SDS011;14766;51.380;13.762;2023-07-31T02:35:40;3.58;;;1.77;;
27265;SDS011;14766;51.380;13.762;2023-07-31T02:38:07;4.82;;;1.88;;
27265;SDS011;14766;51.380;13.762;2023-07-31T02:40:34;3.80;;;1.50;;
27265;SDS011;14766;51.380;13.762;2023-07-31T02:43:01;4.63;;;1.40;;
27265;SDS011;14766;51.380;13.762;2023-07-31T02:45:28;3.72;;;1.27;;
27265;SDS011;14766;51.380;13.762;2023-07-31T02:47:55;3.22;;;1.40;;
27265;SDS011;14766;51.380;13.762;2023-07-31T02:50:22;1.75;;;1.20;;
27265;SDS011;14766;51.380;13.762;2023-07-31T02:52:49;3.33;;;1.40;;
27265;SDS011;14766;51.380;13.762;2023-07-31T02:55:17;2.45;;;1.50;;
27265;SDS011;14766;51.380;13.762;2023-07-31T02:57:44;3.83;;;1.65;;
27265;SDS011;14766;51.380;13.762;2023-07-31T03:00:11;4.90;;;1.77;;
27265;SDS011;14766;51.380;13.762;2023-07-31T03:02:39;2.53;;;1.40;;
27265;SDS011;14766;51.380;13.762;2023-07-31T03:05:06;3.72;;;1.30;;
27265;SDS011;14766;51.380;13.762;2023-07-31T03:07:34;3.20;;;1.42;;
27265;SDS011;14766;51.380;13.762;2023-07-31T03:10:01;3.40;;;1.70;;
27265;SDS011;14766;51.380;13.762;2023-07-31T03:12:28;4.65;;;1.52;;
27265;SDS011;14766;51.380;13.762;2023-07-31T03:14:55;3.08;;;1.60;;
27265;SDS011;14766;51.380;13.762;2023-07-31T03:17:22;1.95;;;1.30;;
27265;SDS011;14766;51.380;13.762;2023-07-31T03:19:50;2.20;;;1.48;;
27265;SDS011;14766;51.380;13.762;2023-07-31T03:22:17;6.03;;;1.83;;
27265;SDS011;14766;51.380;13.762;2023-07-31T03:24:45;3.50;;;1.25;;
27265;SDS011;14766;51.380;13.762;2023-07-31T03:27:12;4.45;;;1.50;;
27265;SDS011;14766;51.380;13.762;2023-07-31T03:29:39;4.50;;;1.55;;
27265;SDS011;14766;51.380;13.762;2023-07-31T03:32:06;2.60;;;1.60;;
27265;SDS011;14766;51.380;13.762;2023-07-31T03:34:33;4.22;;;1.60;;
27265;SDS011;14766;51.380;13.762;2023-07-31T03:37:01;4.07;;;1.75;;
27265;SDS011;14766;51.380;13.762;2023-07-31T03:39:29;3.22;;;1.52;;
27265;SDS011;14766;51.380;13.762;2023-07-31T03:41:56;2.47;;;1.40;;
27265;SDS011;14766;51.380;13.762;2023-07-31T03:44:23;2.80;;;1.40;;
27265;SDS011;14766;51.380;13.762;2023-07-31T03:46:50;3.33;;;1.65;;
27265;SDS011;14766;51.380;13.762;2023-07-31T03:49:18;3.30;;;1.50;;
27265;SDS011;14766;51.380;13.762;2023-07-31T03:51:45;4.03;;;1.40;;
27265;SDS011;14766;51.380;13.762;2023-07-31T03:54:15;4.88;;;1.92;;
27265;SDS011;14766;51.380;13.762;2023-07-31T03:56:42;3.42;;;1.30;;
27265;SDS011;14766;51.380;13.762;2023-07-31T03:59:09;5.65;;;1.90;;
27265;SDS011;14766;51.380;13.762;2023-07-31T04:01:36;3.70;;;1.77;;
27265;SDS011;14766;51.380;13.762;2023-07-31T04:04:04;5.35;;;1.60;;
27265;SDS011;14766;51.380;13.762;2023-07-31T04:06:31;4.22;;;1.85;;
27265;SDS011;14766;51.380;13.762;2023-07-31T04:08:58;4.25;;;1.70;;
27265;SDS011;14766;51.380;13.762;2023-07-31T04:11:26;4.20;;;1.58;;
27265;SDS011;14766;51.380;13.762;2023-07-31T04:13:54;4.47;;;1.65;;
27265;SDS011;14766;51.380;13.762;2023-07-31T04:16:24;3.72;;;2.28;;
27265;SDS011;14766;51.380;13.762;2023-07-31T04:18:53;3.88;;;1.50;;
27265;SDS011;14766;51.380;13.762;2023-07-31T04:21:20;2.63;;;1.60;;
27265;SDS011;14766;51.380;13.762;2023-07-31T04:23:48;3.42;;;1.67;;
27265;SDS011;14766;51.380;13.762;2023-07-31T04:26:15;2.13;;;1.35;;
27265;SDS011;14766;51.380;13.762;2023-07-31T04:28:42;2.47;;;1.77;;
27265;SDS011;14766;51.380;13.762;2023-07-31T04:31:09;3.67;;;2.03;;
27265;SDS011;14766;51.380;13.762;2023-07-31T04:33:36;2.70;;;1.50;;
27265;SDS011;14766;51.380;13.762;2023-07-31T04:36:03;4.70;;;2.08;;
27265;SDS011;14766;51.380;13.762;2023-07-31T04:38:34;3.42;;;1.83;;
27265;SDS011;14766;51.380;13.762;2023-07-31T04:41:02;4.18;;;2.05;;
27265;SDS011;14766;51.380;13.762;2023-07-31T04:43:30;3.00;;;1.65;;
27265;SDS011;14766;51.380;13.762;2023-07-31T04:45:57;2.50;;;1.50;;
27265;SDS011;14766;51.380;13.762;2023-07-31T04:48:24;3.58;;;1.50;;
27265;SDS011;14766;51.380;13.762;2023-07-31T04:50:51;4.88;;;1.75;;
27265;SDS011;14766;51.380;13.762;2023-07-31T04:53:18;3.70;;;1.80;;
27265;SDS011;14766;51.380;13.762;2023-07-31T04:55:45;6.07;;;2.20;;
27265;SDS011;14766;51.380;13.762;2023-07-31T04:58:13;5.68;;;1.50;;
27265;SDS011;14766;51.380;13.762;2023-07-31T05:00:40;4.28;;;1.80;;
27265;SDS011;14766;51.380;13.762;2023-07-31T05:03:07;3.83;;;1.77;;
27265;SDS011;14766;51.380;13.762;2023-07-31T05:05:34;3.47;;;1.70;;
27265;SDS011;14766;51.380;13.762;2023-07-31T05:08:02;4.07;;;1.92;;
27265;SDS011;14766;51.380;13.762;2023-07-31T05:10:29;4.00;;;2.13;;
27265;SDS011;14766;51.380;13.762;2023-07-31T05:12:56;3.25;;;1.80;;
27265;SDS011;14766;51.380;13.762;2023-07-31T05:15:23;5.47;;;2.20;;
27265;SDS011;14766;51.380;13.762;2023-07-31T05:17:50;5.20;;;1.98;;
27265;SDS011;14766;51.380;13.762;2023-07-31T05:20:17;3.67;;;1.80;;
27265;SDS011;14766;51.380;13.762;2023-07-31T05:22:44;3.85;;;1.90;;
27265;SDS011;14766;51.380;13.762;2023-07-31T05:25:11;3.08;;;1.73;;
27265;SDS011;14766;51.380;13.762;2023-07-31T05:27:38;2.95;;;1.60;;
27265;SDS011;14766;51.380;13.762;2023-07-31T05:30:06;4.05;;;2.00;;
27265;SDS011;14766;51.380;13.762;2023-07-31T05:32:33;4.75;;;1.83;;
27265;SDS011;14766;51.380;13.762;2023-07-31T05:35:00;4.50;;;2.10;;
27265;SDS011;14766;51.380;13.762;2023-07-31T05:37:28;2.47;;;1.50;;
27265;SDS011;14766;51.380;13.762;2023-07-31T05:39:56;4.30;;;2.05;;
27265;SDS011;14766;51.380;13.762;2023-07-31T05:42:23;4.68;;;1.98;;
27265;SDS011;14766;51.380;13.762;2023-07-31T05:44:50;6.28;;;2.15;;
27265;SDS011;14766;51.380;13.762;2023-07-31T05:47:17;3.60;;;1.90;;
27265;SDS011;14766;51.380;13.762;2023-07-31T05:49:44;5.55;;;2.10;;
27265;SDS011;14766;51.380;13.762;2023-07-31T05:52:11;4.75;;;2.13;;
27265;SDS011;14766;51.380;13.762;2023-07-31T05:54:38;3.92;;;2.00;;
27265;SDS011;14766;51.380;13.762;2023-07-31T05:57:06;5.40;;;2.00;;
27265;SDS011;14766;51.380;13.762;2023-07-31T05:59:34;3.60;;;1.92;;
27265;SDS011;14766;51.380;13.762;2023-07-31T06:02:01;6.28;;;1.80;;
27265;SDS011;14766;51.380;13.762;2023-07-31T06:04:29;3.00;;;1.90;;
27265;SDS011;14766;51.380;13.762;2023-07-31T06:06:56;4.07;;;2.03;;
27265;SDS011;14766;51.380;13.762;2023-07-31T06:09:23;5.30;;;1.90;;
27265;SDS011;14766;51.380;13.762;2023-07-31T06:11:52;4.47;;;2.10;;
27265;SDS011;14766;51.380;13.762;2023-07-31T06:14:21;3.67;;;1.80;;
27265;SDS011;14766;51.380;13.762;2023-07-31T06:16:48;6.18;;;1.83;;
27265;SDS011;14766;51.380;13.762;2023-07-31T06:19:15;3.50;;;2.05;;
27265;SDS011;14766;51.380;13.762;2023-07-31T06:21:42;5.20;;;2.10;;
27265;SDS011;14766;51.380;13.762;2023-07-31T06:24:11;4.20;;;1.80;;
27265;SDS011;14766;51.380;13.762;2023-07-31T06:26:39;3.13;;;1.85;;
27265;SDS011;14766;51.380;13.762;2023-07-31T06:29:07;7.05;;;2.15;;
27265;SDS011;14766;51.380;13.762;2023-07-31T06:31:34;4.60;;;1.92;;
27265;SDS011;14766;51.380;13.762;2023-07-31T06:34:02;4.07;;;2.17;;
27265;SDS011;14766;51.380;13.762;2023-07-31T06:36:29;3.13;;;1.75;;
27265;SDS011;14766;51.380;13.762;2023-07-31T06:38:56;4.10;;;2.00;;
27265;SDS011;14766;51.380;13.762;2023-07-31T06:41:23;3.53;;;1.95;;
27265;SDS011;14766;51.380;13.762;2023-07-31T06:43:51;4.40;;;2.33;;
27265;SDS011;14766;51.380;13.762;2023-07-31T06:46:18;3.90;;;2.35;;
27265;SDS011;14766;51.380;13.762;2023-07-31T06:48:47;4.80;;;2.10;;
27265;SDS011;14766;51.380;13.762;2023-07-31T06:51:15;5.28;;;2.05;;
27265;SDS011;14766;51.380;13.762;2023-07-31T06:53:47;4.20;;;1.98;;
27265;SDS011;14766;51.380;13.762;2023-07-31T06:56:14;4.05;;;2.25;;
27265;SDS011;14766;51.380;13.762;2023-07-31T06:58:41;6.00;;;2.63;;
27265;SDS011;14766;51.380;13.762;2023-07-31T07:01:08;5.35;;;2.70;;
27265;SDS011;14766;51.380;13.762;2023-07-31T07:03:37;4.55;;;2.60;;
27265;SDS011;14766;51.380;13.762;2023-07-31T07:06:04;6.47;;;3.10;;
27265;SDS011;14766;51.380;13.762;2023-07-31T07:08:32;6.05;;;2.75;;
27265;SDS011;14766;51.380;13.762;2023-07-31T07:10:59;4.95;;;2.65;;
27265;SDS011;14766;51.380;13.762;2023-07-31T07:13:26;4.35;;;2.13;;
27265;SDS011;14766;51.380;13.762;2023-07-31T07:15:53;3.03;;;1.98;;
27265;SDS011;14766;51.380;13.762;2023-07-31T07:18:20;2.72;;;2.00;;
27265;SDS011;14766;51.380;13.762;2023-07-31T07:20:51;3.88;;;2.20;;
27265;SDS011;14766;51.380;13.762;2023-07-31T07:23:21;3.40;;;2.00;;
27265;SDS011;14766;51.380;13.762;2023-07-31T07:25:48;3.95;;;1.98;;
27265;SDS011;14766;51.380;13.762;2023-07-31T07:28:17;3.78;;;2.35;;
27265;SDS011;14766;51.380;13.762;2023-07-31T07:30:44;3.17;;;1.90;;
27265;SDS011;14766;51.380;13.762;2023-07-31T07:33:11;3.92;;;1.92;;
27265;SDS011;14766;51.380;13.762;2023-07-31T07:35:39;4.32;;;2.70;;
27265;SDS011;14766;51.380;13.762;2023-07-31T07:38:06;3.40;;;2.05;;
27265;SDS011;14766;51.380;13.762;2023-07-31T07:40:33;4.78;;;2.42;;
27265;SDS011;14766;51.380;13.762;2023-07-31T07:43:05;4.57;;;2.20;;
27265;SDS011;14766;51.380;13.762;2023-07-31T07:45:33;4.30;;;2.00;;
27265;SDS011;14766;51.380;13.762;2023-07-31T07:48:00;4.78;;;2.53;;
27265;SDS011;14766;51.380;13.762;2023-07-31T07:50:28;5.25;;;2.75;;
27265;SDS011;14766;51.380;13.762;2023-07-31T07:52:55;6.53;;;2.97;;
27265;SDS011;14766;51.380;13.762;2023-07-31T07:55:23;4.10;;;2.60;;
27265;SDS011;14766;51.380;13.762;2023-07-31T07:57:50;5.70;;;2.75;;
27265;SDS011;14766;51.380;13.762;2023-07-31T08:00:17;4.85;;;2.40;;
27265;SDS011;14766;51.380;13.762;2023-07-31T08:02:46;6.30;;;2.90;;
27265;SDS011;14766;51.380;13.762;2023-07-31T08:05:14;4.65;;;2.33;;
27265;SDS011;14766;51.380;13.762;2023-07-31T08:07:44;6.00;;;2.30;;
27265;SDS011;14766;51.380;13.762;2023-07-31T08:10:13;4.10;;;1.75;;
27265;SDS011;14766;51.380;13.762;2023-07-31T08:12:41;6.78;;;2.20;;
27265;SDS011;14766;51.380;13.762;2023-07-31T08:15:09;4.15;;;2.40;;
27265;SDS011;14766;51.380;13.762;2023-07-31T08:17:36;4.63;;;2.30;;
27265;SDS011;14766;51.380;13.762;2023-07-31T08:20:04;4.72;;;1.73;;
27265;SDS011;14766;51.380;13.762;2023-07-31T08:22:31;3.15;;;2.20;;
27265;SDS011;14766;51.380;13.762;2023-07-31T08:24:59;3.90;;;2.20;;
27265;SDS011;14766;51.380;13.762;2023-07-31T08:27:26;6.65;;;2.45;;
27265;SDS011;14766;51.380;13.762;2023-07-31T08:29:53;4.20;;;2.20;;
27265;SDS011;14766;51.380;13.762;2023-07-31T08:32:20;5.70;;;2.42;;
27265;SDS011;14766;51.380;13.762;2023-07-31T08:34:49;5.88;;;2.30;;
27265;SDS011;14766;51.380;13.762;2023-07-31T08:37:17;4.15;;;2.10;;
27265;SDS011;14766;51.380;13.762;2023-07-31T08:39:46;3.65;;;2.20;;
27265;SDS011;14766;51.380;13.762;2023-07-31T08:42:13;3.30;;;1.73;;
27265;SDS011;14766;51.380;13.762;2023-07-31T08:44:40;2.85;;;2.15;;
27265;SDS011;14766;51.380;13.762;2023-07-31T08:47:10;3.92;;;2.10;;
27265;SDS011;14766;51.380;13.762;2023-07-31T08:49:38;3.20;;;2.13;;
27265;SDS011;14766;51.380;13.762;2023-07-31T08:52:06;3.72;;;2.20;;
27265;SDS011;14766;51.380;13.762;2023-07-31T08:54:34;6.45;;;2.85;;
27265;SDS011;14766;51.380;13.762;2023-07-31T08:57:01;4.90;;;2.22;;
27265;SDS011;14766;51.380;13.762;2023-07-31T08:59:29;3.00;;;2.15;;
27265;SDS011;14766;51.380;13.762;2023-07-31T09:01:57;5.13;;;2.20;;
27265;SDS011;14766;51.380;13.762;2023-07-31T09:04:31;5.15;;;2.10;;
27265;SDS011;14766;51.380;13.762;2023-07-31T09:07:02;3.05;;;1.75;;
27265;SDS011;14766;51.380;13.762;2023-07-31T09:09:31;3.50;;;1.85;;
27265;SDS011;14766;51.380;13.762;2023-07-31T09:11:58;3.72;;;2.20;;
27265;SDS011;14766;51.380;13.762;2023-07-31T09:14:26;3.25;;;2.20;;
27265;SDS011;14766;51.380;13.762;2023-07-31T09:16:57;3.85;;;2.20;;
27265;SDS011;14766;51.380;13.762;2023-07-31T09:19:32;4.72;;;2.60;;
27265;SDS011;14766;51.380;13.762;2023-07-31T09:22:04;4.85;;;1.88;;
27265;SDS011;14766;51.380;13.762;2023-07-31T09:24:32;3.20;;;1.80;;
27265;SDS011;14766;51.380;13.762;2023-07-31T09:27:00;4.97;;;2.30;;
27265;SDS011;14766;51.380;13.762;2023-07-31T09:29:29;4.40;;;2.15;;
27265;SDS011;14766;51.380;13.762;2023-07-31T09:31:57;3.28;;;2.00;;
27265;SDS011;14766;51.380;13.762;2023-07-31T09:34:30;7.07;;;2.40;;
27265;SDS011;14766;51.380;13.762;2023-07-31T09:37:07;5.50;;;2.65;;
27265;SDS011;14766;51.380;13.762;2023-07-31T09:39:44;4.40;;;2.10;;
27265;SDS011;14766;51.380;13.762;2023-07-31T09:42:13;4.10;;;2.30;;
27265;SDS011;14766;51.380;13.762;2023-07-31T09:44:40;4.47;;;2.15;;
27265;SDS011;14766;51.380;13.762;2023-07-31T09:47:21;8.27;;;2.55;;
27265;SDS011;14766;51.380;13.762;2023-07-31T09:49:51;4.38;;;2.03;;
27265;SDS011;14766;51.380;13.762;2023-07-31T09:52:19;4.90;;;2.22;;
27265;SDS011;14766;51.380;13.762;2023-07-31T09:54:47;2.97;;;2.15;;
27265;SDS011;14766;51.380;13.762;2023-07-31T09:57:15;4.07;;;2.20;;
27265;SDS011;14766;51.380;13.762;2023-07-31T09:59:45;3.35;;;2.17;;
27265;SDS011;14766;51.380;13.762;2023-07-31T10:02:14;3.72;;;2.00;;
27265;SDS011;14766;51.380;13.762;2023-07-31T10:04:46;4.63;;;2.35;;
27265;SDS011;14766;51.380;13.762;2023-07-31T10:07:17;4.43;;;2.53;;
27265;SDS011;14766;51.380;13.762;2023-07-31T10:09:45;4.65;;;2.53;;
27265;SDS011;14766;51.380;13.762;2023-07-31T10:12:15;4.32;;;2.38;;
27265;SDS011;14766;51.380;13.762;2023-07-31T10:14:45;3.13;;;1.92;;
27265;SDS011;14766;51.380;13.762;2023-07-31T10:17:12;3.78;;;1.80;;
27265;SDS011;14766;51.380;13.762;2023-07-31T10:19:41;4.35;;;2.38;;
27265;SDS011;14766;51.380;13.762;2023-07-31T10:22:09;3.50;;;1.98;;
27265;SDS011;14766;51.380;13.762;2023-07-31T10:24:39;4.50;;;2.78;;
27265;SDS011;14766;51.380;13.762;2023-07-31T10:27:07;4.72;;;1.88;;
27265;SDS011;14766;51.380;13.762;2023-07-31T10:29:40;5.47;;;2.65;;
27265;SDS011;14766;51.380;13.762;2023-07-31T10:32:10;3.75;;;2.53;;
27265;SDS011;14766;51.380;13.762;2023-07-31T10:34:39;4.28;;;2.90;;
27265;SDS011;14766;51.380;13.762;2023-07-31T10:37:23;2.97;;;2.17;;
27265;SDS011;14766;51.380;13.762;2023-07-31T10:39:55;5.80;;;2.20;;
27265;SDS011;14766;51.380;13.762;2023-07-31T10:45:04;3.22;;;2.03;;
27265;SDS011;14766;51.380;13.762;2023-07-31T10:47:43;4.38;;;2.40;;
27265;SDS011;14766;51.380;13.762;2023-07-31T10:52:39;3.53;;;2.55;;
27265;SDS011;14766;51.380;13.762;2023-07-31T10:55:14;3.85;;;2.50;;
27265;SDS011;14766;51.380;13.762;2023-07-31T10:57:44;3.88;;;2.00;;
27265;SDS011;14766;51.380;13.762;2023-07-31T11:02:58;3.40;;;2.20;;
27265;SDS011;14766;51.380;13.762;2023-07-31T11:05:49;4.78;;;2.50;;
27265;SDS011;14766;51.380;13.762;2023-07-31T11:08:31;3.33;;;2.28;;
27265;SDS011;14766;51.380;13.762;2023-07-31T11:13:33;3.15;;;2.35;;
27265;SDS011;14766;51.380;13.762;2023-07-31T11:16:07;3.20;;;2.47;;
27265;SDS011;14766;51.380;13.762;2023-07-31T11:18:35;5.10;;;2.65;;
27265;SDS011;14766;51.380;13.762;2023-07-31T11:21:04;4.40;;;2.40;;
27265;SDS011;14766;51.380;13.762;2023-07-31T11:23:31;3.20;;;2.05;;
27265;SDS011;14766;51.380;13.762;2023-07-31T11:26:00;3.92;;;2.45;;
27265;SDS011;14766;51.380;13.762;2023-07-31T11:28:31;4.88;;;2.58;;
27265;SDS011;14766;51.380;13.762;2023-07-31T11:31:00;4.57;;;2.25;;
27265;SDS011;14766;51.380;13.762;2023-07-31T11:33:28;3.35;;;2.28;;
27265;SDS011;14766;51.380;13.762;2023-07-31T11:35:56;4.75;;;2.50;;
27265;SDS011;14766;51.380;13.762;2023-07-31T11:38:28;3.58;;;2.30;;
27265;SDS011;14766;51.380;13.762;2023-07-31T11:40:57;4.20;;;2.17;;
27265;SDS011;14766;51.380;13.762;2023-07-31T11:43:25;3.97;;;2.30;;
27265;SDS011;14766;51.380;13.762;2023-07-31T11:45:56;5.72;;;2.50;;
27265;SDS011;14766;51.380;13.762;2023-07-31T11:48:33;3.47;;;2.40;;
27265;SDS011;14766;51.380;13.762;2023-07-31T11:51:03;6.68;;;2.22;;
27265;SDS011;14766;51.380;13.762;2023-07-31T11:53:38;3.95;;;2.45;;
27265;SDS011;14766;51.380;13.762;2023-07-31T11:56:14;3.65;;;2.33;;
27265;SDS011;14766;51.380;13.762;2023-07-31T11:58:55;4.03;;;2.45;;
27265;SDS011;14766;51.380;13.762;2023-07-31T12:01:29;3.90;;;2.25;;
27265;SDS011;14766;51.380;13.762;2023-07-31T12:03:57;4.18;;;2.33;;
27265;SDS011;14766;51.380;13.762;2023-07-31T12:06:34;3.08;;;1.90;;
27265;SDS011;14766;51.380;13.762;2023-07-31T12:09:03;3.20;;;1.98;;
27265;SDS011;14766;51.380;13.762;2023-07-31T12:11:42;3.45;;;2.17;;
27265;SDS011;14766;51.380;13.762;2023-07-31T12:14:23;4.72;;;1.90;;
27265;SDS011;14766;51.380;13.762;2023-07-31T12:17:01;3.90;;;2.20;;
27265;SDS011;14766;51.380;13.762;2023-07-31T12:19:31;2.97;;;2.25;;
27265;SDS011;14766;51.380;13.762;2023-07-31T12:21:58;3.38;;;2.35;;
27265;SDS011;14766;51.380;13.762;2023-07-31T12:24:26;6.30;;;2.40;;
27265;SDS011;14766;51.380;13.762;2023-07-31T12:26:54;2.65;;;2.03;;
27265;SDS011;14766;51.380;13.762;2023-07-31T12:29:21;3.65;;;2.20;;
27265;SDS011;14766;51.380;13.762;2023-07-31T12:31:48;3.05;;;1.90;;
27265;SDS011;14766;51.380;13.762;2023-07-31T12:34:16;4.03;;;2.22;;
27265;SDS011;14766;51.380;13.762;2023-07-31T12:36:45;3.00;;;2.17;;
27265;SDS011;14766;51.380;13.762;2023-07-31T12:39:12;3.78;;;2.22;;
27265;SDS011;14766;51.380;13.762;2023-07-31T12:41:39;2.65;;;1.77;;
27265;SDS011;14766;51.380;13.762;2023-07-31T12:44:07;3.08;;;2.03;;
27265;SDS011;14766;51.380;13.762;2023-07-31T12:46:34;3.97;;;2.40;;
27265;SDS011;14766;51.380;13.762;2023-07-31T12:49:01;4.05;;;2.30;;
27265;SDS011;14766;51.380;13.762;2023-07-31T12:51:29;3.28;;;2.10;;
27265;SDS011;14766;51.380;13.762;2023-07-31T12:53:56;3.58;;;1.90;;
27265;SDS011;14766;51.380;13.762;2023-07-31T12:56:23;6.07;;;2.25;;
27265;SDS011;14766;51.380;13.762;2023-07-31T12:58:50;2.72;;;1.95;;
27265;SDS011;14766;51.380;13.762;2023-07-31T13:01:18;4.03;;;1.98;;
27265;SDS011;14766;51.380;13.762;2023-07-31T13:03:45;3.13;;;2.10;;
27265;SDS011;14766;51.380;13.762;2023-07-31T13:06:12;4.50;;;1.90;;
27265;SDS011;14766;51.380;13.762;2023-07-31T13:08:39;3.97;;;1.80;;
27265;SDS011;14766;51.380;13.762;2023-07-31T13:11:07;2.55;;;2.00;;
27265;SDS011;14766;51.380;13.762;2023-07-31T13:13:34;3.45;;;2.03;;
27265;SDS011;14766;51.380;13.762;2023-07-31T13:16:01;3.38;;;2.10;;
27265;SDS011;14766;51.380;13.762;2023-07-31T13:18:28;2.70;;;1.95;;
27265;SDS011;14766;51.380;13.762;2023-07-31T13:20:56;4.80;;;2.33;;
27265;SDS011;14766;51.380;13.762;2023-07-31T13:23:23;2.63;;;2.20;;
27265;SDS011;14766;51.380;13.762;2023-07-31T13:25:51;3.53;;;2.45;;
27265;SDS011;14766;51.380;13.762;2023-07-31T13:28:19;3.97;;;3.25;;
27265;SDS011;14766;51.380;13.762;2023-07-31T13:30:52;3.83;;;2.65;;
27265;SDS011;14766;51.380;13.762;2023-07-31T13:33:22;4.90;;;2.60;;
27265;SDS011;14766;51.380;13.762;2023-07-31T13:36:02;5.10;;;2.75;;
27265;SDS011;14766;51.380;13.762;2023-07-31T13:38:30;5.32;;;2.60;;
27265;SDS011;14766;51.380;13.762;2023-07-31T13:40:57;3.55;;;2.40;;
27265;SDS011;14766;51.380;13.762;2023-07-31T13:43:25;4.97;;;2.35;;
27265;SDS011;14766;51.380;13.762;2023-07-31T13:45:52;2.83;;;2.08;;
27265;SDS011;14766;51.380;13.762;2023-07-31T13:48:19;6.00;;;2.35;;
27265;SDS011;14766;51.380;13.762;2023-07-31T13:50:46;3.38;;;2.30;;
27265;SDS011;14766;51.380;13.762;2023-07-31T13:53:15;2.53;;;2.08;;
27265;SDS011;14766;51.380;13.762;2023-07-31T13:55:42;5.45;;;2.78;;
27265;SDS011;14766;51.380;13.762;2023-07-31T13:58:11;3.70;;;2.17;;
27265;SDS011;14766;51.380;13.762;2023-07-31T14:00:38;3.78;;;2.30;;
27265;SDS011;14766;51.380;13.762;2023-07-31T14:03:06;2.80;;;2.35;;
27265;SDS011;14766;51.380;13.762;2023-07-31T14:05:33;4.15;;;2.30;;
27265;SDS011;14766;51.380;13.762;2023-07-31T14:08:01;3.28;;;2.25;;
27265;SDS011;14766;51.380;13.762;2023-07-31T14:10:28;4.70;;;2.10;;
27265;SDS011;14766;51.380;13.762;2023-07-31T14:12:55;3.40;;;1.90;;
27265;SDS011;14766;51.380;13.762;2023-07-31T14:15:22;2.95;;;2.10;;
27265;SDS011;14766;51.380;13.762;2023-07-31T14:17:49;2.63;;;2.10;;
27265;SDS011;14766;51.380;13.762;2023-07-31T14:20:17;3.28;;;2.05;;
27265;SDS011;14766;51.380;13.762;2023-07-31T14:22:46;3.38;;;2.13;;
27265;SDS011;14766;51.380;13.762;2023-07-31T14:25:13;4.47;;;2.20;;
27265;SDS011;14766;51.380;13.762;2023-07-31T14:27:43;3.42;;;2.15;;
27265;SDS011;14766;51.380;13.762;2023-07-31T14:30:10;2.75;;;2.10;;
27265;SDS011;14766;51.380;13.762;2023-07-31T14:32:37;3.83;;;2.13;;
27265;SDS011;14766;51.380;13.762;2023-07-31T14:35:04;4.70;;;2.15;;
27265;SDS011;14766;51.380;13.762;2023-07-31T14:37:38;2.20;;;2.00;;
27265;SDS011;14766;51.380;13.762;2023-07-31T14:40:10;2.95;;;2.15;;
27265;SDS011;14766;51.380;13.762;2023-07-31T14:42:39;3.15;;;2.10;;
27265;SDS011;14766;51.380;13.762;2023-07-31T14:45:06;5.43;;;2.08;;
27265;SDS011;14766;51.380;13.762;2023-07-31T14:47:34;4.35;;;2.42;;
27265;SDS011;14766;51.380;13.762;2023-07-31T14:50:02;4.32;;;2.30;;
27265;SDS011;14766;51.380;13.762;2023-07-31T14:52:29;2.58;;;1.92;;
27265;SDS011;14766;51.380;13.762;2023-07-31T14:54:57;2.88;;;2.00;;
27265;SDS011;14766;51.380;13.762;2023-07-31T14:57:24;3.25;;;2.20;;
27265;SDS011;14766;51.380;13.762;2023-07-31T14:59:52;2.47;;;2.03;;